createdAt,value
2022-12-18T09:30:15.122Z,38.25
2022-12-18T09:32:22.318Z,43.60
2022-12-18T09:34:25.070Z,42.60
2022-12-18T09:36:27.365Z,44.08
2022-12-18T09:38:30.121Z,49.00
2022-12-18T09:40:42.799Z,48.40
2022-12-18T09:42:52.755Z,53.22
2022-12-18T09:44:55.603Z,55.17
2022-12-18T09:47:21.387Z,49.42
2022-12-18T09:49:28.735Z,45.88
2022-12-18T09:51:39.663Z,53.20
2022-12-18T09:53:44.512Z,44.25
2022-12-18T09:55:49.297Z,32.00
2022-12-18T09:58:33.455Z,37.05
2022-12-18T10:00:35.832Z,48.50
2022-12-18T10:02:38.647Z,37.58
2022-12-18T10:04:41.093Z,38.78
2022-12-18T10:07:09.078Z,49.20
2022-12-18T10:09:33.265Z,52.28
2022-12-18T10:11:50.173Z,49.78
2022-12-18T10:13:52.554Z,47.40
2022-12-18T10:15:58.334Z,47.28
2022-12-18T10:18:17.253Z,42.80
2022-12-18T10:20:36.437Z,52.15
2022-12-18T10:22:50.999Z,49.95
2022-12-18T10:25:18.237Z,50.95
2022-12-18T10:27:24.773Z,50.85
2022-12-18T10:29:27.808Z,54.33
2022-12-18T10:31:30.230Z,48.28
2022-12-18T10:33:34.087Z,46.35
2022-12-18T10:35:37.357Z,50.88
2022-12-18T10:38:07.140Z,46.80
2022-12-18T10:40:21.785Z,48.55
2022-12-18T10:42:25.273Z,48.13
2022-12-18T10:44:27.550Z,45.00
2022-12-18T10:46:30.035Z,48.45
2022-12-18T10:48:55.711Z,48.25
2022-12-18T10:51:10.927Z,47.62
2022-12-18T10:53:21.393Z,47.30
2022-12-18T10:55:28.590Z,48.28
2022-12-18T10:57:35.847Z,44.22
2022-12-18T10:59:55.885Z,51.30
2022-12-18T11:01:59.824Z,48.40
2022-12-18T11:04:09.094Z,47.60
2022-12-18T11:06:22.829Z,46.63
2022-12-18T11:08:25.604Z,49.28
2022-12-18T11:10:40.172Z,43.47
2022-12-18T11:12:42.647Z,48.42
2022-12-18T11:14:51.943Z,50.45
2022-12-18T11:17:25.316Z,45.33
2022-12-18T11:19:54.120Z,49.67
2022-12-18T11:21:57.501Z,47.78
2022-12-18T11:24:00.139Z,49.58
2022-12-18T11:26:05.080Z,48.53
2022-12-18T11:28:30.372Z,42.97
2022-12-18T11:30:37.915Z,54.20
2022-12-18T11:32:44.215Z,45.35
2022-12-18T11:34:55.950Z,45.65
2022-12-18T11:37:03.839Z,40.40
2022-12-18T11:39:32.357Z,43.10
2022-12-18T11:42:09.074Z,44.15
2022-12-18T11:44:14.768Z,45.80
2022-12-18T11:46:35.675Z,47.35
2022-12-18T11:48:46.967Z,42.83
2022-12-18T11:53:04.226Z,42.47
2022-12-18T11:55:22.034Z,44.78
2022-12-18T11:57:39.860Z,44.72
2022-12-18T12:00:01.786Z,44.38
2022-12-18T12:02:36.800Z,51.55
2022-12-18T12:04:47.066Z,45.60
2022-12-18T12:06:49.239Z,43.90
2022-12-18T12:09:09.434Z,40.08
2022-12-18T12:11:42.948Z,42.20
2022-12-18T12:14:07.622Z,43.87
2022-12-18T12:16:38.676Z,45.40
2022-12-18T12:19:23.264Z,42.53
2022-12-18T12:21:42.114Z,35.80
2022-12-18T12:24:28.840Z,37.22
2022-12-18T12:26:44.055Z,39.45
2022-12-18T12:29:03.945Z,37.47
2022-12-18T12:31:44.264Z,36.00
2022-12-18T12:34:08.218Z,31.73
2022-12-18T12:36:28.954Z,32.20
2022-12-18T12:38:52.267Z,37.05
2022-12-18T12:41:06.440Z,35.78
2022-12-18T12:43:23.425Z,34.65
2022-12-18T12:45:40.062Z,31.48
2022-12-18T12:47:44.243Z,71.45
2022-12-18T12:49:48.767Z,30.27
2022-12-18T12:52:08.543Z,28.10
2022-12-18T12:54:20.791Z,33.30
2022-12-18T12:56:39.888Z,29.20
2022-12-18T12:58:54.037Z,37.33
2022-12-18T13:01:25.000Z,33.03
2022-12-18T13:03:40.058Z,29.55
2022-12-18T13:05:55.256Z,32.03
2022-12-18T13:08:07.678Z,33.70
2022-12-18T13:10:23.588Z,30.60
2022-12-18T13:12:47.884Z,33.80
2022-12-18T13:14:50.640Z,34.10
2022-12-18T13:17:10.827Z,36.13
2022-12-18T13:19:24.159Z,32.40
2022-12-18T13:21:33.404Z,31.25
2022-12-18T13:23:41.379Z,35.38
2022-12-18T13:25:44.592Z,30.65
2022-12-18T13:27:56.587Z,30.77
2022-12-18T13:29:59.196Z,35.25
2022-12-18T13:32:02.398Z,34.63
2022-12-18T13:34:27.441Z,42.40
2022-12-18T13:36:33.686Z,38.45
2022-12-18T13:38:38.253Z,42.92
2022-12-18T13:40:55.290Z,42.13
2022-12-18T13:43:29.828Z,45.35
2022-12-18T13:45:59.544Z,44.35
2022-12-18T13:48:02.202Z,43.70
2022-12-18T13:50:30.957Z,41.50
2022-12-18T13:52:40.428Z,44.95
2022-12-18T13:54:44.026Z,42.42
2022-12-18T13:56:47.654Z,44.70
2022-12-18T13:59:12.409Z,44.55
2022-12-18T14:01:24.929Z,49.40
2022-12-18T14:03:31.447Z,62.40
2022-12-18T14:05:38.620Z,56.80
2022-12-18T14:07:44.795Z,65.00
2022-12-18T14:10:25.922Z,54.88
2022-12-18T14:12:56.086Z,57.00
2022-12-18T14:14:59.723Z,63.08
2022-12-18T14:17:02.123Z,60.75
2022-12-18T14:19:18.159Z,50.50
2022-12-18T14:21:30.404Z,55.40
2022-12-18T14:23:32.640Z,53.15
2022-12-18T14:25:34.942Z,53.95
2022-12-18T14:27:42.729Z,47.67
2022-12-18T14:29:45.658Z,50.38
2022-12-18T14:32:18.764Z,46.47
2022-12-18T14:34:27.768Z,48.55
2022-12-18T14:36:30.968Z,44.50
2022-12-18T14:38:40.842Z,44.88
2022-12-18T14:40:44.868Z,59.97
2022-12-18T14:42:47.325Z,68.53
2022-12-18T14:45:12.316Z,44.30
2022-12-18T14:47:17.315Z,55.45
2022-12-18T14:49:32.777Z,40.50
2022-12-18T14:51:37.071Z,49.20
2022-12-18T14:53:47.740Z,51.70
2022-12-18T14:55:53.439Z,47.00
2022-12-18T14:57:57.867Z,49.30
2022-12-18T15:00:15.875Z,50.95
2022-12-18T15:02:30.086Z,58.50
2022-12-18T15:04:36.572Z,60.35
2022-12-18T15:06:41.545Z,49.50
2022-12-18T15:08:44.769Z,45.30
2022-12-18T15:10:50.033Z,54.92
2022-12-18T15:13:04.155Z,54.00
2022-12-18T15:15:40.371Z,48.25
2022-12-18T15:17:43.445Z,48.50
2022-12-18T15:19:48.453Z,51.65
2022-12-18T15:21:52.193Z,56.55
2022-12-18T15:24:04.140Z,57.00
2022-12-18T15:26:10.246Z,55.80
2022-12-18T15:28:36.977Z,59.80
2022-12-18T15:30:41.305Z,57.85
2022-12-18T15:32:46.333Z,60.00
2022-12-18T15:34:50.026Z,53.78
2022-12-18T15:36:53.390Z,50.67
2022-12-18T15:39:04.892Z,62.45
2022-12-18T15:41:24.476Z,56.17
2022-12-18T15:43:38.536Z,50.12
2022-12-18T15:45:42.347Z,51.15
2022-12-18T15:47:46.067Z,58.63
2022-12-18T15:49:49.273Z,52.33
2022-12-18T15:51:59.947Z,48.53
2022-12-18T15:54:06.702Z,48.75
2022-12-18T15:56:32.497Z,54.75
2022-12-18T15:58:36.340Z,50.17
2022-12-18T16:00:41.787Z,51.10
2022-12-18T16:02:47.041Z,53.33
2022-12-18T16:04:52.792Z,51.17
2022-12-18T16:07:14.486Z,59.15
2022-12-18T16:09:26.029Z,53.30
2022-12-18T16:11:42.756Z,60.67
2022-12-18T16:13:46.199Z,54.88
2022-12-18T16:15:51.816Z,50.33
2022-12-18T16:17:55.269Z,46.25
2022-12-18T16:20:00.502Z,53.67
2022-12-18T16:22:07.061Z,51.08
2022-12-18T16:24:31.044Z,55.60
2022-12-18T16:26:34.573Z,56.13
2022-12-18T16:28:42.495Z,61.88
2022-12-18T16:30:48.978Z,54.80
2022-12-18T16:32:52.176Z,54.08
2022-12-18T16:35:03.036Z,55.60
2022-12-18T16:37:09.778Z,54.70
2022-12-18T16:39:13.258Z,64.37
2022-12-18T16:41:47.456Z,56.10
2022-12-18T16:43:54.829Z,89.75
2022-12-18T16:46:00.566Z,54.72
2022-12-18T16:48:04.525Z,88.68
2022-12-18T16:50:09.011Z,70.35
2022-12-18T16:52:12.927Z,60.40
2022-12-18T16:54:19.040Z,62.95
2022-12-18T16:56:23.638Z,48.87
2022-12-18T16:58:27.372Z,51.10
2022-12-18T17:00:32.100Z,50.12
2022-12-18T17:02:39.293Z,55.15
2022-12-18T17:04:45.639Z,58.67
2022-12-18T17:06:52.486Z,56.60
2022-12-18T17:08:58.613Z,57.45
2022-12-18T17:11:09.061Z,55.05
2022-12-18T17:13:13.540Z,74.35
2022-12-18T17:15:17.174Z,54.92
2022-12-18T17:17:24.167Z,61.55
2022-12-18T17:19:28.915Z,62.00
2022-12-18T17:21:31.949Z,56.15
2022-12-18T17:23:35.618Z,55.35
2022-12-18T17:25:42.568Z,57.45
2022-12-18T17:27:49.120Z,61.90
2022-12-18T17:29:52.691Z,56.15
2022-12-18T17:31:57.701Z,66.45
2022-12-18T17:34:04.263Z,53.33
2022-12-18T17:36:07.867Z,54.80
2022-12-18T17:38:11.966Z,56.63
2022-12-18T17:40:15.121Z,60.72
2022-12-18T17:42:18.911Z,57.10
2022-12-18T17:44:22.412Z,51.22
2022-12-18T17:46:26.880Z,50.88
2022-12-18T17:48:31.178Z,58.75
2022-12-18T17:50:36.434Z,51.05
2022-12-18T17:52:39.921Z,61.03
2022-12-18T17:54:44.710Z,64.45
2022-12-18T17:56:52.410Z,59.58
2022-12-18T17:58:57.769Z,56.75
2022-12-18T18:01:07.826Z,62.62
2022-12-18T18:03:12.945Z,58.55
2022-12-18T18:05:16.804Z,59.65
2022-12-18T18:07:21.168Z,73.03
2022-12-18T18:09:25.049Z,65.43
2022-12-18T18:11:46.912Z,59.45
2022-12-18T18:14:01.967Z,65.50
2022-12-18T18:16:07.145Z,49.08
2022-12-18T18:18:10.655Z,55.38
2022-12-18T18:20:22.303Z,47.40
2022-12-18T18:22:26.184Z,60.55
2022-12-18T18:24:32.012Z,58.90
2022-12-18T18:26:37.228Z,67.40
2022-12-18T18:28:41.521Z,64.45
2022-12-18T18:30:45.760Z,63.50
2022-12-18T18:32:49.782Z,56.05
2022-12-18T18:34:56.986Z,64.25
2022-12-18T18:37:02.061Z,67.47
2022-12-18T18:39:05.796Z,60.33
2022-12-18T18:41:12.247Z,65.93
2022-12-18T18:43:15.510Z,61.25
2022-12-18T18:45:19.152Z,66.97
2022-12-18T18:47:22.780Z,63.90
2022-12-18T18:49:28.172Z,63.00
2022-12-18T18:51:35.049Z,62.58
2022-12-18T18:53:41.742Z,63.25
2022-12-18T18:55:44.836Z,60.20
2022-12-18T18:57:52.091Z,68.20
2022-12-18T18:59:56.337Z,54.35
2022-12-18T19:02:04.178Z,69.70
2022-12-18T19:04:09.019Z,66.22
2022-12-18T19:06:21.793Z,65.20
2022-12-18T19:08:26.631Z,68.03
2022-12-18T19:10:29.826Z,66.25
2022-12-18T19:12:54.093Z,60.88
2022-12-18T19:14:57.493Z,55.30
2022-12-18T19:17:00.608Z,63.85
2022-12-18T19:19:05.884Z,63.17
2022-12-18T19:21:10.887Z,66.70
2022-12-18T19:23:14.190Z,52.62
2022-12-18T19:25:18.418Z,51.58
2022-12-18T19:27:22.107Z,60.03
2022-12-18T19:29:25.893Z,53.67
2022-12-18T19:31:34.792Z,48.97
2022-12-18T19:33:43.495Z,57.70
2022-12-18T19:35:47.545Z,63.10
2022-12-18T19:37:51.466Z,50.70
2022-12-18T19:39:57.873Z,52.50
2022-12-18T19:42:03.706Z,63.50
2022-12-18T19:44:09.340Z,78.35
2022-12-18T19:46:15.255Z,55.60
2022-12-18T19:48:18.449Z,56.40
2022-12-18T19:50:21.564Z,60.38
2022-12-18T19:52:24.705Z,63.78
2022-12-18T19:54:28.085Z,65.65
2022-12-18T19:56:34.853Z,59.25
2022-12-18T19:58:39.027Z,68.25
2022-12-18T20:00:42.501Z,65.15
2022-12-18T20:02:48.412Z,62.88
2022-12-18T20:04:51.972Z,67.93
2022-12-18T20:06:55.287Z,77.75
2022-12-18T20:09:01.673Z,69.50
2022-12-18T20:11:05.016Z,78.47
2022-12-18T20:13:08.684Z,67.85
2022-12-18T20:15:12.604Z,70.93
2022-12-18T20:17:15.443Z,69.87
2022-12-18T20:19:18.853Z,70.37
2022-12-18T20:21:22.558Z,69.47
2022-12-18T20:23:25.956Z,73.32
2022-12-18T20:25:33.670Z,65.37
2022-12-18T20:27:36.902Z,75.82
2022-12-18T20:29:41.827Z,73.85
2022-12-18T20:31:46.203Z,86.35
2022-12-18T20:33:51.078Z,72.20
2022-12-18T20:35:55.451Z,68.78
2022-12-18T20:37:59.828Z,76.55
2022-12-18T20:40:04.526Z,75.70
2022-12-18T20:42:08.597Z,82.75
2022-12-18T20:44:22.662Z,89.18
2022-12-18T20:46:26.791Z,77.25
2022-12-18T20:48:30.450Z,90.93
2022-12-18T20:50:33.229Z,78.45
2022-12-18T20:52:36.056Z,83.72
2022-12-18T20:54:39.074Z,74.62
2022-12-18T20:56:43.646Z,82.15
2022-12-18T20:58:46.950Z,82.57
2022-12-18T21:00:49.334Z,72.95
2022-12-18T21:02:52.325Z,91.53
2022-12-18T21:04:55.260Z,81.18
2022-12-18T21:07:02.675Z,84.82
2022-12-18T21:09:06.154Z,85.95
2022-12-18T21:11:44.805Z,85.45
2022-12-18T21:13:47.346Z,83.53
2022-12-18T21:15:49.614Z,75.05
2022-12-18T21:17:52.647Z,81.85
2022-12-18T21:19:55.443Z,83.37
2022-12-18T21:21:58.346Z,67.57
2022-12-18T21:24:01.041Z,72.47
2022-12-18T21:26:21.227Z,75.87
2022-12-18T21:28:23.779Z,77.70
2022-12-18T21:30:26.433Z,76.62
2022-12-18T21:32:29.840Z,81.47
2022-12-18T21:34:35.970Z,87.15
2022-12-18T21:36:38.554Z,67.53
2022-12-18T21:38:40.950Z,65.70
2022-12-18T21:40:43.866Z,75.03
2022-12-18T21:43:05.323Z,82.00
2022-12-18T21:45:08.032Z,72.35
2022-12-18T21:47:21.412Z,65.47
2022-12-18T21:49:25.990Z,98.07
2022-12-18T21:51:28.548Z,64.95
2022-12-18T21:53:30.806Z,70.55
2022-12-18T21:55:33.448Z,76.00
2022-12-18T21:57:36.246Z,75.82
2022-12-18T21:59:40.302Z,77.93
2022-12-18T22:01:43.628Z,73.57
2022-12-18T22:03:46.463Z,70.57
2022-12-18T22:05:49.389Z,70.05
2022-12-18T22:08:03.223Z,70.20
2022-12-18T22:10:06.677Z,84.07
2022-12-18T22:12:11.959Z,82.88
2022-12-18T22:14:15.044Z,81.15
2022-12-18T22:16:20.284Z,82.75
2022-12-18T22:18:22.918Z,71.50
2022-12-18T22:20:25.229Z,69.22
2022-12-18T22:22:29.406Z,85.25
2022-12-18T22:24:31.795Z,78.18
2022-12-18T22:26:40.159Z,87.10
2022-12-18T22:29:01.935Z,77.75
2022-12-18T22:33:06.563Z,76.20
2022-12-18T22:35:14.156Z,78.45
2022-12-18T22:37:17.971Z,76.87
2022-12-18T22:39:28.514Z,78.72
2022-12-18T22:41:32.036Z,81.00
2022-12-18T22:43:34.931Z,81.22
2022-12-18T22:45:38.531Z,75.95
2022-12-18T22:47:41.644Z,80.90
2022-12-18T22:49:44.005Z,80.87
2022-12-18T22:51:47.738Z,87.93
2022-12-18T22:53:50.958Z,80.57
2022-12-18T22:56:00.530Z,79.87
2022-12-18T22:58:02.788Z,73.60
2022-12-18T23:00:05.994Z,72.12
2022-12-18T23:02:08.594Z,74.40
2022-12-18T23:04:11.436Z,72.78
2022-12-18T23:06:14.746Z,87.12
2022-12-18T23:08:17.042Z,79.50
2022-12-18T23:10:19.326Z,76.50
2022-12-18T23:12:21.930Z,73.20
2022-12-18T23:14:24.271Z,61.33
2022-12-18T23:16:26.905Z,76.68
2022-12-18T23:18:29.551Z,84.53
2022-12-18T23:20:31.814Z,68.80
2022-12-18T23:22:34.078Z,70.70
2022-12-18T23:24:36.732Z,67.70
2022-12-18T23:26:39.190Z,70.75
2022-12-18T23:28:42.533Z,64.87
2022-12-18T23:30:45.072Z,68.53
2022-12-18T23:32:47.424Z,77.05
2022-12-18T23:34:49.698Z,63.05
2022-12-18T23:36:56.033Z,67.57
2022-12-18T23:39:00.639Z,68.12
2022-12-18T23:41:10.896Z,77.10
2022-12-18T23:43:13.450Z,69.57
2022-12-18T23:45:18.148Z,83.87
